Time;durP1;ratioP1;P1;durP2;ratioP2;P2;SDS_P1;SDS_P2;PMS_P1;PMS_P2;Temp;Humidity;BMP_temperature;BMP_pressure;BME280_temperature;BME280_humidity;BME280_pressure;Samples;Min_cycle;Max_cycle;Signal;HPM_P1;HPM_P2
2021/01/30 16:24:49;;;;;;;9.80;8.70;;;;;;;;;;5131761;27;20469;-70
2021/01/30 16:27:16;;;;;;;13.52;12.10;;;;;;;;;;5111131;28;20249;-70
2021/01/30 16:29:43;;;;;;;10.52;8.23;;;;;;;;;;5111344;28;20200;-71
2021/01/30 16:32:11;;;;;;;16.02;14.32;;;;;;;;;;5111461;28;20551;-69
2021/01/30 16:34:39;;;;;;;10.43;8.18;;;;;;;;;;5111399;28;20308;-71
2021/01/30 16:37:06;;;;;;;12.88;9.60;;;;;;;;;;5110523;28;20193;-71
2021/01/30 16:39:33;;;;;;;14.70;9.13;;;;;;;;;;5111001;28;20549;-70
2021/01/30 16:42:00;;;;;;;11.15;9.95;;;;;;;;;;5110493;28;20228;-69
2021/01/30 16:44:27;;;;;;;11.73;10.10;;;;;;;;;;5110651;28;20233;-73
2021/01/30 16:46:54;;;;;;;11.35;9.20;;;;;;;;;;5110737;28;20289;-68
2021/01/30 16:49:21;;;;;;;15.90;10.20;;;;;;;;;;5110602;28;20276;-67
2021/01/30 16:51:48;;;;;;;13.23;10.63;;;;;;;;;;5110583;28;20228;-70
2021/01/30 16:54:15;;;;;;;17.98;11.60;;;;;;;;;;5110831;28;20240;-70
2021/01/30 16:56:41;;;;;;;17.77;11.57;;;;;;;;;;5110739;28;20193;-69
2021/01/30 16:59:09;;;;;;;17.92;12.27;;;;;;;;;;5110685;28;20338;-68
2021/01/30 17:01:37;;;;;;;17.40;12.55;;;;;;;;;;5110261;28;20745;-68
2021/01/30 17:04:04;;;;;;;17.30;11.90;;;;;;;;;;5110534;28;20566;-70
2021/01/30 17:06:30;;;;;;;15.65;11.35;;;;;;;;;;5110739;28;20709;-69
2021/01/30 17:08:57;;;;;;;15.25;11.88;;;;;;;;;;5110153;28;20279;-69
2021/01/30 17:11:24;;;;;;;20.98;13.40;;;;;;;;;;5110165;28;20235;-69
2021/01/30 17:13:51;;;;;;;18.20;12.20;;;;;;;;;;5110430;28;20287;-69
2021/01/30 17:16:18;;;;;;;18.05;13.13;;;;;;;;;;5110111;28;20197;-69
2021/01/30 17:18:45;;;;;;;18.98;12.95;;;;;;;;;;5110012;28;20789;-69
2021/01/30 17:21:12;;;;;;;19.00;12.32;;;;;;;;;;5109972;28;20280;-71
2021/01/30 17:23:39;;;;;;;20.15;13.07;;;;;;;;;;5110322;28;20353;-69
2021/01/30 17:26:06;;;;;;;18.88;12.63;;;;;;;;;;5110227;28;20224;-70
2021/01/30 17:28:33;;;;;;;17.83;13.60;;;;;;;;;;5110721;28;20189;-68
2021/01/30 17:30:59;;;;;;;16.40;11.43;;;;;;;;;;5110049;28;20225;-68
2021/01/30 17:33:27;;;;;;;17.58;12.50;;;;;;;;;;5110228;28;20568;-69
2021/01/30 17:35:54;;;;;;;19.85;14.63;;;;;;;;;;5097431;28;20200;-71
2021/01/30 17:38:20;;;;;;;17.27;14.18;;;;;;;;;;5096053;28;20307;-69
2021/01/30 17:40:47;;;;;;;19.02;15.15;;;;;;;;;;5077926;28;20255;-69
2021/01/30 17:43:15;;;;;;;17.00;12.55;;;;;;;;;;5075808;28;20245;-70
2021/01/30 17:45:42;;;;;;;19.38;13.27;;;;;;;;;;5076034;28;20277;-70
2021/01/30 17:48:09;;;;;;;20.90;14.32;;;;;;;;;;5076001;28;20563;-70
2021/01/30 17:50:37;;;;;;;20.58;14.10;;;;;;;;;;5075281;28;20237;-71
2021/01/30 17:53:04;;;;;;;19.63;12.75;;;;;;;;;;5075690;28;20293;-69
2021/01/30 17:55:31;;;;;;;28.92;15.68;;;;;;;;;;5075569;28;20216;-69
2021/01/30 17:57:58;;;;;;;20.65;13.65;;;;;;;;;;5075490;28;20191;-69
2021/01/30 18:00:26;;;;;;;24.02;14.07;;;;;;;;;;5075224;28;20608;-70
2021/01/30 18:02:53;;;;;;;22.05;14.23;;;;;;;;;;5075197;28;20263;-70
2021/01/30 18:05:21;;;;;;;23.27;13.60;;;;;;;;;;5075288;28;20205;-71
2021/01/30 18:07:48;;;;;;;19.08;13.38;;;;;;;;;;5075288;28;20197;-70
2021/01/30 18:10:16;;;;;;;21.05;13.63;;;;;;;;;;5075010;28;20205;-69
2021/01/30 18:12:43;;;;;;;20.30;14.40;;;;;;;;;;5075300;28;20234;-70
2021/01/30 18:15:11;;;;;;;23.00;13.85;;;;;;;;;;5075180;28;20343;-70
2021/01/30 18:17:38;;;;;;;24.08;16.00;;;;;;;;;;5075222;28;20194;-70
2021/01/30 18:20:05;;;;;;;18.05;11.50;;;;;;;;;;5074964;28;20224;-70
2021/01/30 18:22:34;;;;;;;24.48;13.98;;;;;;;;;;5075431;28;20252;-69
2021/01/30 18:25:01;;;;;;;36.63;19.92;;;;;;;;;;5075845;28;20628;-69
2021/01/30 18:27:28;;;;;;;19.55;14.30;;;;;;;;;;5075306;28;20586;-71
2021/01/30 18:29:55;;;;;;;20.10;12.90;;;;;;;;;;5074136;28;20196;-70
2021/01/30 18:32:22;;;;;;;17.85;12.45;;;;;;;;;;5074852;28;20205;-71
2021/01/30 18:34:49;;;;;;;19.30;13.02;;;;;;;;;;5075706;28;20289;-69
2021/01/30 18:37:16;;;;;;;22.70;15.65;;;;;;;;;;5075302;28;20226;-67
2021/01/30 18:39:43;;;;;;;24.33;13.80;;;;;;;;;;5074599;28;20609;-67
2021/01/30 18:42:10;;;;;;;18.52;13.13;;;;;;;;;;5074076;28;20285;-68
2021/01/30 18:44:37;;;;;;;22.20;14.45;;;;;;;;;;5074586;28;20218;-69
2021/01/30 18:47:04;;;;;;;22.75;13.73;;;;;;;;;;5073483;28;20225;-68
2021/01/30 18:49:31;;;;;;;21.15;14.43;;;;;;;;;;5074176;28;20281;-67
2021/01/30 18:51:57;;;;;;;20.48;13.85;;;;;;;;;;5074423;28;20233;-67
2021/01/30 18:54:24;;;;;;;20.73;13.00;;;;;;;;;;5074844;28;20281;-68
2021/01/30 18:56:51;;;;;;;17.05;11.88;;;;;;;;;;5074348;28;20628;-67
2021/01/30 18:59:19;;;;;;;18.60;11.77;;;;;;;;;;5074051;28;20347;-68
2021/01/30 19:01:45;;;;;;;19.75;12.95;;;;;;;;;;5074350;28;20294;-67
2021/01/30 19:04:12;;;;;;;16.25;12.57;;;;;;;;;;5074097;28;20301;-68
2021/01/30 19:06:39;;;;;;;20.70;14.73;;;;;;;;;;5073788;28;20237;-68
2021/01/30 19:09:05;;;;;;;21.10;14.68;;;;;;;;;;5073720;28;20233;-68
2021/01/30 19:11:33;;;;;;;18.95;12.60;;;;;;;;;;5073819;28;20238;-67
2021/01/30 19:14:00;;;;;;;32.85;20.00;;;;;;;;;;5074294;28;20295;-69
2021/01/30 19:16:28;;;;;;;17.52;13.05;;;;;;;;;;5073818;28;20578;-73
2021/01/30 19:18:55;;;;;;;15.90;11.75;;;;;;;;;;5094408;28;20287;-70
2021/01/30 19:21:22;;;;;;;14.93;11.43;;;;;;;;;;5094331;28;20645;-69
2021/01/30 19:23:49;;;;;;;15.52;10.65;;;;;;;;;;5094424;28;20683;-67
2021/01/30 19:26:16;;;;;;;18.25;12.10;;;;;;;;;;5094423;28;20591;-70
2021/01/30 19:28:43;;;;;;;12.98;10.25;;;;;;;;;;5094293;28;20229;-74
2021/01/30 19:31:10;;;;;;;13.95;11.48;;;;;;;;;;5094055;28;20197;-71
2021/01/30 19:33:37;;;;;;;15.25;11.82;;;;;;;;;;5094415;28;20201;-73
2021/01/30 19:36:04;;;;;;;13.30;11.18;;;;;;;;;;5093824;28;20232;-73
2021/01/30 19:38:31;;;;;;;22.55;11.82;;;;;;;;;;5094124;28;20200;-75
2021/01/30 19:40:58;;;;;;;14.15;10.55;;;;;;;;;;5094126;28;20240;-73
2021/01/30 19:43:25;;;;;;;16.80;11.45;;;;;;;;;;5093640;28;20244;-69
2021/01/30 19:45:53;;;;;;;15.38;10.05;;;;;;;;;;5093611;28;20196;-74
2021/01/30 19:48:20;;;;;;;20.52;13.40;;;;;;;;;;5093697;28;20312;-67
2021/01/30 19:50:48;;;;;;;14.85;11.35;;;;;;;;;;5093787;28;20254;-69
2021/01/30 19:53:15;;;;;;;23.17;14.48;;;;;;;;;;5093644;28;20281;-69
2021/01/30 19:55:42;;;;;;;16.48;12.80;;;;;;;;;;5093396;28;20208;-67
2021/01/30 19:58:09;;;;;;;13.85;9.80;;;;;;;;;;5093475;28;20240;-67
2021/01/30 20:00:36;;;;;;;11.82;10.10;;;;;;;;;;5093424;28;20274;-67
2021/01/30 20:03:03;;;;;;;23.17;15.65;;;;;;;;;;5093168;28;20224;-68
2021/01/30 20:05:31;;;;;;;11.77;10.48;;;;;;;;;;5093672;28;20619;-76
2021/01/30 20:07:59;;;;;;;12.45;9.43;;;;;;;;;;5093307;28;20193;-70
2021/01/30 20:10:27;;;;;;;12.18;9.63;;;;;;;;;;5093635;28;20197;-70
2021/01/30 20:12:54;;;;;;;13.15;10.20;;;;;;;;;;5094131;28;20194;-69
2021/01/30 20:15:22;;;;;;;14.18;9.20;;;;;;;;;;5093526;28;20200;-71
2021/01/30 20:17:49;;;;;;;15.98;12.13;;;;;;;;;;5093806;28;20544;-77
2021/01/30 20:20:16;;;;;;;14.13;10.82;;;;;;;;;;5093577;28;20246;-70
2021/01/30 20:22:45;;;;;;;13.88;10.20;;;;;;;;;;5093208;28;20232;-70
2021/01/30 20:25:13;;;;;;;35.40;21.70;;;;;;;;;;5093471;28;20229;-71
2021/01/30 20:27:40;;;;;;;18.40;13.63;;;;;;;;;;5093106;28;20693;-76
2021/01/30 20:30:08;;;;;;;15.18;9.82;;;;;;;;;;5093525;28;20225;-69
2021/01/30 20:32:35;;;;;;;16.45;9.52;;;;;;;;;;5093305;28;20557;-72
2021/01/30 20:35:02;;;;;;;20.00;13.43;;;;;;;;;;5093034;28;20197;-70
2021/01/30 20:37:29;;;;;;;11.32;9.23;;;;;;;;;;5093322;28;20193;-70
2021/01/30 20:39:56;;;;;;;11.85;10.57;;;;;;;;;;5093021;28;20193;-70
2021/01/30 20:42:24;;;;;;;11.60;8.73;;;;;;;;;;5094251;28;20534;-69
2021/01/30 20:44:50;;;;;;;12.18;9.68;;;;;;;;;;5092974;28;20311;-69
2021/01/30 20:47:26;;;;;;;281.95;166.52;;;;;;;;;;5093114;28;20283;-69
2021/01/30 20:49:53;;;;;;;15.10;11.73;;;;;;;;;;5093974;28;20220;-69
2021/01/30 20:52:19;;;;;;;16.58;10.02;;;;;;;;;;5093199;28;20625;-69
2021/01/30 20:54:46;;;;;;;13.65;9.55;;;;;;;;;;5093294;28;20300;-69
2021/01/30 20:57:13;;;;;;;12.45;9.60;;;;;;;;;;5093677;28;20592;-69
2021/01/30 20:59:40;;;;;;;12.13;9.93;;;;;;;;;;5093455;28;20552;-69
2021/01/30 21:02:07;;;;;;;10.55;8.55;;;;;;;;;;5093239;28;20193;-69
2021/01/30 21:04:34;;;;;;;25.45;18.35;;;;;;;;;;5093381;28;20233;-69
2021/01/30 21:07:01;;;;;;;17.65;13.38;;;;;;;;;;5093142;28;20200;-69
2021/01/30 21:09:28;;;;;;;15.23;9.18;;;;;;;;;;5093534;28;20221;-70
2021/01/30 21:11:55;;;;;;;11.90;8.98;;;;;;;;;;5096712;28;20757;-70
2021/01/30 21:14:21;;;;;;;12.20;9.60;;;;;;;;;;5096606;28;20193;-70
2021/01/30 21:16:49;;;;;;;14.68;10.75;;;;;;;;;;5096866;28;20295;-69
2021/01/30 21:19:16;;;;;;;12.20;9.15;;;;;;;;;;5096890;28;20233;-68
2021/01/30 21:21:42;;;;;;;13.20;10.13;;;;;;;;;;5096496;28;20284;-69
2021/01/30 21:24:09;;;;;;;12.50;8.88;;;;;;;;;;5096647;28;20279;-68
2021/01/30 21:26:36;;;;;;;14.35;9.70;;;;;;;;;;5096436;28;20239;-69
2021/01/30 21:29:03;;;;;;;11.55;9.32;;;;;;;;;;5096715;28;20289;-69
2021/01/30 21:31:30;;;;;;;13.80;9.60;;;;;;;;;;5096857;28;20232;-69
2021/01/30 21:33:58;;;;;;;11.68;10.20;;;;;;;;;;5097421;28;20581;-69
2021/01/30 21:36:25;;;;;;;13.68;10.30;;;;;;;;;;5096598;28;20281;-69
2021/01/30 21:38:52;;;;;;;15.13;10.57;;;;;;;;;;5096559;28;20584;-69
2021/01/30 21:41:19;;;;;;;14.25;10.82;;;;;;;;;;5096428;28;20189;-69
2021/01/30 21:43:46;;;;;;;15.88;11.10;;;;;;;;;;5096056;28;20304;-68
2021/01/30 21:46:13;;;;;;;14.63;11.52;;;;;;;;;;5096210;28;20287;-68
2021/01/30 21:48:40;;;;;;;20.40;12.13;;;;;;;;;;5096016;28;20242;-70
2021/01/30 21:51:08;;;;;;;18.50;12.82;;;;;;;;;;5096034;28;20196;-68
2021/01/30 21:53:35;;;;;;;14.95;12.00;;;;;;;;;;5096205;28;20215;-70
2021/01/30 21:56:02;;;;;;;11.90;10.63;;;;;;;;;;5096483;28;20554;-69
2021/01/30 21:58:28;;;;;;;13.65;10.32;;;;;;;;;;5095822;28;20288;-69
2021/01/30 22:00:55;;;;;;;17.58;12.15;;;;;;;;;;5095746;28;20280;-69
2021/01/30 22:03:22;;;;;;;12.85;9.95;;;;;;;;;;5095849;28;20313;-69
2021/01/30 22:05:49;;;;;;;15.13;11.18;;;;;;;;;;5096227;28;20197;-68
2021/01/30 22:08:16;;;;;;;15.55;11.13;;;;;;;;;;5095910;28;20244;-69
2021/01/30 22:10:43;;;;;;;13.52;10.93;;;;;;;;;;5095452;28;20233;-69
2021/01/30 22:13:10;;;;;;;12.68;10.27;;;;;;;;;;5095467;28;20201;-69
2021/01/30 22:15:37;;;;;;;15.15;11.07;;;;;;;;;;5095428;28;20194;-70
2021/01/30 22:18:05;;;;;;;14.93;10.20;;;;;;;;;;5095697;28;20608;-69
2021/01/30 22:20:31;;;;;;;15.00;11.70;;;;;;;;;;5095470;28;20303;-69
2021/01/30 22:22:58;;;;;;;16.65;10.90;;;;;;;;;;5094956;28;20229;-69
2021/01/30 22:25:26;;;;;;;13.80;11.23;;;;;;;;;;5095325;28;20197;-68
2021/01/30 22:27:52;;;;;;;18.70;13.98;;;;;;;;;;5095603;28;20279;-68
2021/01/30 22:30:20;;;;;;;16.00;11.25;;;;;;;;;;5095175;28;20233;-69
2021/01/30 22:32:47;;;;;;;17.05;11.40;;;;;;;;;;5095453;28;20350;-70
2021/01/30 22:35:13;;;;;;;16.15;11.90;;;;;;;;;;5095076;28;20771;-69
2021/01/30 22:37:40;;;;;;;18.38;11.93;;;;;;;;;;5095595;28;20276;-69
2021/01/30 22:40:08;;;;;;;14.25;10.70;;;;;;;;;;5095296;28;20285;-70
2021/01/30 22:42:35;;;;;;;16.20;11.48;;;;;;;;;;5095298;28;20614;-68
2021/01/30 22:45:02;;;;;;;16.77;12.63;;;;;;;;;;5094816;28;20259;-69
2021/01/30 22:47:29;;;;;;;17.45;11.63;;;;;;;;;;5094908;28;20286;-69
2021/01/30 22:49:56;;;;;;;21.92;15.93;;;;;;;;;;5094783;28;20192;-69
2021/01/30 22:52:22;;;;;;;22.52;14.00;;;;;;;;;;5094680;28;20194;-68
2021/01/30 22:54:49;;;;;;;27.58;17.58;;;;;;;;;;5094658;28;20207;-69
2021/01/30 22:57:16;;;;;;;13.63;11.55;;;;;;;;;;5094953;28;20228;-69
2021/01/30 22:59:44;;;;;;;18.05;12.98;;;;;;;;;;5094582;28;20256;-69
2021/01/30 23:02:16;;;;;;;20.35;12.75;;;;;;;;;;5094663;28;20724;-69
2021/01/30 23:04:43;;;;;;;16.75;12.52;;;;;;;;;;5094474;28;20224;-69
2021/01/30 23:07:10;;;;;;;17.10;12.13;;;;;;;;;;5094790;28;20208;-69
2021/01/30 23:09:36;;;;;;;20.48;13.55;;;;;;;;;;5095392;28;20279;-69
2021/01/30 23:12:04;;;;;;;18.52;14.05;;;;;;;;;;5094363;28;20284;-69
2021/01/30 23:14:30;;;;;;;19.20;13.82;;;;;;;;;;5094301;28;20203;-69
2021/01/30 23:17:00;;;;;;;19.85;12.50;;;;;;;;;;5094637;28;20193;-69
2021/01/30 23:19:27;;;;;;;20.40;13.88;;;;;;;;;;5094266;28;20288;-69
2021/01/30 23:21:53;;;;;;;23.60;14.10;;;;;;;;;;5094581;28;20260;-69
2021/01/30 23:24:20;;;;;;;18.25;13.30;;;;;;;;;;5093845;28;20320;-69
2021/01/30 23:26:47;;;;;;;18.13;12.80;;;;;;;;;;5094443;28;20197;-69
2021/01/30 23:29:14;;;;;;;21.00;12.68;;;;;;;;;;5094472;28;20288;-68
2021/01/30 23:31:40;;;;;;;20.08;13.70;;;;;;;;;;5095000;28;20231;-68
2021/01/30 23:34:08;;;;;;;17.40;12.82;;;;;;;;;;5093806;28;20298;-70
2021/01/30 23:36:35;;;;;;;19.90;13.88;;;;;;;;;;5094295;28;20197;-69
2021/01/30 23:39:02;;;;;;;17.98;13.20;;;;;;;;;;5094230;28;20201;-69
2021/01/30 23:41:29;;;;;;;18.13;13.30;;;;;;;;;;5094223;28;20285;-68
2021/01/30 23:43:55;;;;;;;19.40;12.93;;;;;;;;;;5093779;28;20220;-68
2021/01/30 23:46:22;;;;;;;17.13;12.90;;;;;;;;;;5094158;28;20287;-69
2021/01/30 23:48:49;;;;;;;20.17;13.70;;;;;;;;;;5094099;28;20299;-69
2021/01/30 23:51:16;;;;;;;21.73;13.25;;;;;;;;;;5093699;28;20360;-69
2021/01/30 23:53:43;;;;;;;19.75;12.90;;;;;;;;;;5093963;28;20352;-69
2021/01/30 23:56:10;;;;;;;20.95;14.35;;;;;;;;;;5093793;28;20280;-69
2021/01/30 23:58:36;;;;;;;23.48;14.82;;;;;;;;;;5093472;28;20288;-68
